Flight Track Log - Related Links

Times and Time Zones

All times are in EDT time to prevent confusion due to time zone crossing. See the UAL4457 flight status page for this flight to view local times or setup timezone preferences in your user account.

Time Position Orientation Groundspeed Altitude Reporting Facility
EDT Latitude Longitude Course Direction KTS MPH feet Rate Location/Type
Fri 03:41:11 PM 29.9767 -95.3008 32° Northeast 160 184 500  Level Houston Center
Fri 03:42:13 PM 30.0161 -95.2719 32° Northeast 215 247 2,300 1,765 Climbing Houston Center
Fri 03:42:53 PM 30.0578 -95.2597 14° North 236 272 3,500 1,000 Climbing Houston Center
Fri 03:43:55 PM 30.1250 -95.2342 18° North 250 288 4,000 1,210 Climbing Houston Center
Fri 03:44:00 PM 30.3979 -95.0017 35° Northeast  Level FlightAware Approximate
Fri 03:44:57 PM 30.1847 -95.1853 35° Northeast 259 298 6,000  Level Houston Center
Fri 03:45:00 PM 30.5006 -94.9229 35° Northeast  Level FlightAware Approximate
Fri 03:45:59 PM 30.2467 -95.1358 35° Northeast 268 308 8,900  Level Houston Center
Fri 03:46:00 PM 30.6045 -94.8397 32° Northeast  Level FlightAware Approximate
Fri 03:47:01 PM 30.3286 -95.0733 33° Northeast 295 339 10,700  Level Houston Center
Fri 03:48:03 PM 30.4089 -95.0072 35° Northeast 350 403 11,900 1,306 Climbing Houston Center
Fri 03:49:05 PM 30.4881 -94.9433 35° Northeast 371 427 13,400 1,536 Climbing Houston Center
Fri 03:50:08 PM 30.5964 -94.8594 34° Northeast 389 448 15,100 1,440 Climbing Houston Center
Fri 03:51:10 PM 30.6900 -94.7867 34° Northeast 403 464 16,400 1,258 Climbing Houston Center
Fri 03:52:12 PM 30.7850 -94.7133 34° Northeast 411 473 17,700 1,210 Climbing Houston Center
Fri 03:53:14 PM 30.8822 -94.6389 33° Northeast 420 483 18,900 1,275 Climbing Houston Center
Fri 03:53:32 PM 30.9192 -94.6094 34° Northeast 397 457 19,400 1,462 Climbing Fort Worth Center
Fri 03:54:32 PM 31.0197 -94.5339 33° Northeast 437 503 20,800 1,250 Climbing Fort Worth Center
Fri 03:55:32 PM 31.1203 -94.4531 35° Northeast 437 503 21,900 1,350 Climbing Fort Worth Center
Fri 03:56:32 PM 31.2206 -94.3747 34° Northeast 439 505 23,500 1,650 Climbing Fort Worth Center
Fri 03:57:32 PM 31.3231 -94.2958 33° Northeast 439 505 25,200 1,700 Climbing Fort Worth Center
Fri 03:58:32 PM 31.4214 -94.2172 34° Northeast 433 498 26,900 1,550 Climbing Fort Worth Center
Fri 03:59:32 PM 31.5022 -94.1119 48° Northeast 426 490 28,300 1,400 Climbing Fort Worth Center
Fri 04:00:32 PM 31.5764 -94.0044 51° Northeast 416 479 29,700 1,250 Climbing Fort Worth Center
Fri 04:01:32 PM 31.6367 -93.9169 51° Northeast 423 487 30,800 1,250 Climbing Fort Worth Center
Fri 04:02:32 PM 31.7189 -93.7967 51° Northeast 423 487 32,200 1,250 Climbing Fort Worth Center
Fri 04:03:32 PM 31.7908 -93.6886 52° Northeast 423 487 33,300 1,050 Climbing Fort Worth Center
Fri 04:04:32 PM 31.8669 -93.5756 52° Northeast 428 493 34,300 800 Climbing Fort Worth Center
Fri 04:05:32 PM 31.9447 -93.4619 51° Northeast 433 498 34,900 350 Climbing Fort Worth Center
Fri 04:06:32 PM 32.0267 -93.3433 51° Northeast 446 513 35,000 50 Climbing Fort Worth Center
Fri 04:07:32 PM 32.1103 -93.2194 51° Northeast 457 526 35,000  Level Fort Worth Center
Fri 04:08:32 PM 32.1956 -93.0903 52° Northeast 486 559 35,000  Level Fort Worth Center
Fri 04:09:32 PM 32.2869 -92.9583 51° Northeast 498 573 35,000  Level Fort Worth Center
Fri 04:10:32 PM 32.3758 -92.8211 52° Northeast 513 590 35,000  Level Fort Worth Center
Fri 04:11:32 PM 32.4689 -92.6786 52° Northeast 529 609 35,000  Level Fort Worth Center
Fri 04:12:32 PM 32.5597 -92.5431 51° Northeast 524 603 35,000  Level Fort Worth Center
Fri 04:13:32 PM 32.6486 -92.4150 50° Northeast 517 595 35,000  Level Fort Worth Center
Fri 04:15:56 PM 32.8625 -92.0811 53° Northeast 526 605 35,000  Level Memphis Center
Fri 04:16:56 PM 32.9586 -91.9294 53° Northeast 526 605 35,000  Level Memphis Center
Fri 04:17:56 PM 33.0478 -91.7922 52° Northeast 526 605 35,000  Level Memphis Center
Fri 04:18:56 PM 33.1369 -91.6547 52° Northeast 521 600 35,000  Level Memphis Center
Fri 04:19:56 PM 33.2281 -91.5169 52° Northeast 528 608 35,000  Level Memphis Center
Fri 04:20:56 PM 33.3169 -91.3764 53° Northeast 523 602 35,000  Level Memphis Center
Fri 04:21:56 PM 33.4058 -91.2356 53° Northeast 523 602 35,000  Level Memphis Center
Fri 04:22:56 PM 33.4964 -91.0944 52° Northeast 523 602 35,000  Level Memphis Center
Fri 04:23:56 PM 33.5847 -90.9556 53° Northeast 523 602 35,000  Level Memphis Center
Fri 04:24:56 PM 33.6772 -90.8142 52° Northeast 528 608 35,000  Level Memphis Center
Fri 04:25:56 PM 33.7653 -90.6719 53° Northeast 528 608 35,000  Level Memphis Center
Fri 04:26:56 PM 33.8553 -90.5297 53° Northeast 528 608 35,000  Level Memphis Center
Fri 04:27:56 PM 33.9431 -90.3872 53° Northeast 528 608 35,000  Level Memphis Center
Fri 04:28:56 PM 34.0328 -90.2419 53° Northeast 528 608 35,000  Level Memphis Center
Fri 04:29:56 PM 34.1222 -90.0986 53° Northeast 528 608 35,000  Level Memphis Center
Fri 04:30:56 PM 34.2139 -89.9528 53° Northeast 528 608 35,000  Level Memphis Center
Fri 04:31:56 PM 34.3008 -89.8064 54° Northeast 534 615 35,000  Level Memphis Center
Fri 04:32:56 PM 34.3897 -89.6600 54° Northeast 534 615 35,000  Level Memphis Center
Fri 04:33:56 PM 34.4808 -89.5106 53° Northeast 539 620 35,000  Level Memphis Center
Fri 04:34:56 PM 34.5714 -89.3608 54° Northeast 544 626 35,000  Level Memphis Center
Fri 04:35:56 PM 34.6619 -89.2133 53° Northeast 551 634 35,000  Level Memphis Center
Fri 04:36:56 PM 34.7503 -89.0656 54° Northeast 551 634 35,000  Level Memphis Center
Fri 04:37:56 PM 34.8403 -88.9147 54° Northeast 551 634 35,000  Level Memphis Center
Fri 04:38:56 PM 34.9325 -88.7639 53° Northeast 551 634 35,000  Level Memphis Center
Fri 04:39:56 PM 35.0200 -88.6175 54° Northeast 544 626 35,000  Level Memphis Center
Fri 04:40:56 PM 35.0994 -88.4814 54° Northeast 544 626 35,000  Level Memphis Center
Fri 04:41:56 PM 35.1889 -88.3372 53° Northeast 538 619 35,000  Level Memphis Center
Fri 04:42:56 PM 35.2783 -88.1875 54° Northeast 538 619 35,000  Level Memphis Center
Fri 04:43:56 PM 35.3694 -88.0322 54° Northeast 544 626 35,000  Level Memphis Center
Fri 04:44:56 PM 35.4661 -87.8639 55° Northeast 551 634 35,000  Level Memphis Center
Fri 04:45:56 PM 35.5425 -87.7239 56° Northeast 551 634 35,000  Level Memphis Center
Fri 04:46:56 PM 35.6331 -87.5703 54° Northeast 556 640 35,000  Level Memphis Center
Fri 04:47:56 PM 35.7211 -87.4139 55° Northeast 550 633 35,000  Level Memphis Center
Fri 04:48:56 PM 35.8114 -87.2597 54° Northeast 550 633 35,000  Level Memphis Center
Fri 04:49:56 PM 35.8992 -87.1050 55° Northeast 550 633 35,000  Level Memphis Center
Fri 04:50:56 PM 35.9867 -86.9478 55° Northeast 555 639 35,000  Level Memphis Center
Fri 04:51:56 PM 36.0758 -86.7900 55° Northeast 555 639 35,000 -200 Level Memphis Center
Fri 04:52:56 PM 36.1694 -86.6367 53° Northeast 555 639 34,600 -500 Descending Memphis Center
Fri 04:53:56 PM 36.2714 -86.4956 48° Northeast 550 633 34,000 -500 Descending Memphis Center
Fri 04:54:56 PM 36.3931 -86.3842 36° Northeast 542 624 33,600 -850 Descending Memphis Center
Fri 04:55:56 PM 36.5097 -86.2597 41° Northeast 542 624 32,300 -1,307 Descending Memphis Center
Fri 04:57:55 PM 36.7078 -85.9542 51° Northeast 567 652 29,700 -1,326 Descending Indianapolis Center
Fri 04:58:57 PM 36.8056 -85.8000 52° Northeast 564 649 28,300 -1,645 Descending Indianapolis Center
Fri 04:59:59 PM 36.9033 -85.6439 52° Northeast 565 650 26,300 -1,790 Descending Indianapolis Center
Fri 05:01:01 PM 36.9942 -85.5011 51° Northeast 533 613 24,600 -1,355 Descending Indianapolis Center
Fri 05:02:03 PM 37.0975 -85.3356 52° Northeast 530 610 23,500 -1,935 Descending Indianapolis Center
Fri 05:03:05 PM 37.1878 -85.1919 52° Northeast 522 601 20,600 -2,855 Descending Indianapolis Center
Fri 05:04:07 PM 37.2711 -85.0569 52° Northeast 493 567 17,600 -2,903 Descending Indianapolis Center
Fri 05:05:09 PM 37.3492 -84.9308 52° Northeast 463 533 14,600 -2,855 Descending Indianapolis Center
Fri 05:06:11 PM 37.4369 -84.7928 51° Northeast 429 494 11,700 -1,742 Descending Indianapolis Center
Fri 05:07:13 PM 37.5308 -84.7289 28° Northeast 396 456 11,000 -726 Descending Indianapolis Center
Fri 05:08:15 PM 37.6192 -84.6761 25° Northeast 360 414 10,200 -968 Descending Indianapolis Center
Fri 05:09:17 PM 37.6950 -84.6325 24° Northeast 312 359 9,000 -581 Descending Indianapolis Center
Fri 05:10:19 PM 37.7653 -84.5908 25° Northeast 286 329 9,000 -145 Level Indianapolis Center
Fri 05:11:21 PM 37.8311 -84.5531 24° Northeast 264 304 8,700 -774 Descending Indianapolis Center
Fri 05:12:23 PM 37.9086 -84.5108 23° Northeast 261 300 7,400 -1,210 Descending Indianapolis Center
Fri 05:13:25 PM 37.9817 -84.4933 11° North 264 304 6,200 -968 Descending Indianapolis Center
Fri 05:14:27 PM 38.0486 -84.4744 13° North 259 298 5,400 -774 Descending Indianapolis Center

Login

Don't have an account? Register now (free) for customized features, flight alerts, and more!